Latest Weather Observations for Charleville

IDQ60801

Issued at 10:02 am EST Saturday 21 January 2017 (issued every 30 minutes, with the page automatically refreshed every 10 minutes)

About weather observations | Map of weather stations | Latest weather observations for QLD | Other Formats
Station Details ID: 044021 Name: CHARLEVILLE AERO Lat: -26.41 Lon: 146.26 Height: 301.6 m
Data from the previous 72 hours. | See also: Recent months at Charleville
Date/Time
EST
Temp
°C
App
Temp
°C
Dew
Point
°C
Rel
Hum
%
Delta-T
°C
Wind Press
QNH
hPa
Press
MSL
hPa
Rain since
9am
mm
Dir  Spd
km/h
Gust
km/h
Spd
kts
Gust
kts
21/10:00am 31.0 34.2 21.2 56 6.6 S 6 11 3 6 1010.2 1008.1 0.2
21/09:30am 29.9 32.6 21.3 60 5.8 SSE 9 13 5 7 1010.2 1008.1 0.2
21/09:00am 29.3 32.2 21.8 64 5.1 SSE 9 11 5 6 1010.0 1007.9 0.8
21/08:30am 28.4 31.1 22.2 69 4.2 S 11 15 6 8 1010.2 1008.1 0.8
21/08:00am 28.1 31.2 22.1 70 4.1 S 9 13 5 7 1010.0 1007.9 0.8
21/07:30am 27.0 31.4 23.5 81 2.4 SW 6 9 3 5 1010.1 1008.0 0.8
21/07:00am 26.6 31.0 23.5 83 2.1 SW 6 7 3 4 1009.9 1007.8 0.8
21/06:30am 26.2 31.3 23.3 84 2.0 NNW 2 6 1 3 1009.5 1007.4 0.8
21/06:00am 25.9 31.3 23.2 85 1.9 CALM 0 0 0 0 1009.0 1006.9 0.8
21/05:30am 25.7 31.1 23.2 86 1.7 CALM 0 0 0 0 1008.5 1006.4 0.8
21/05:00am 25.5 30.7 22.8 85 1.8 CALM 0 0 0 0 1008.1 1006.0 0.8
21/04:30am 25.9 29.9 22.8 83 2.1 N 6 9 3 5 1007.4 1005.3 0.8
21/04:00am 25.8 29.3 22.9 84 2.0 N 9 9 5 5 1006.9 1004.8 0.8
21/03:30am 25.7 29.3 23.0 85 1.8 N 9 11 5 6 1006.8 1004.7 0.8
21/03:00am 25.6 29.9 22.7 84 2.0 NW 4 9 2 5 1006.9 1004.8 0.8
21/02:30am 25.9 31.2 23.0 84 2.0 CALM 0 0 0 0 1006.8 1004.7 0.8
21/02:00am 25.8 30.9 22.7 83 2.1 CALM 0 0 0 0 1007.1 1005.0 0.8
21/01:30am 25.6 30.9 23.1 86 1.7 CALM 0 0 0 0 1007.3 1005.2 0.8
21/01:00am 25.7 30.6 23.0 85 1.9 ESE 2 6 1 3 1007.4 1005.3 0.8
21/12:30am 25.4 30.0 22.5 84 2.0 N 2 6 1 3 1007.9 1005.8 0.8
21/12:00am 25.2 29.2 22.7 86 1.7 NE 6 7 3 4 1008.1 1006.0 0.8
 
Date/Time
EST
Temp
°C
App
Temp
°C
Dew
Point
°C
Rel
Hum
%
Delta-T
°C
Wind Press
QNH
hPa
Press
MSL
hPa
Rain since
9am
mm
Dir  Spd
km/h
Gust
km/h
Spd
kts
Gust
kts
20/11:30pm 25.1 28.8 22.2 84 2.0 S 6 11 3 6 1008.2 1006.1 0.8
20/11:00pm 25.4 27.9 22.5 84 2.0 SSW 13 19 7 10 1008.7 1006.6 0.8
20/10:30pm 27.0 26.6 21.7 73 3.6 SW 26 35 14 19 1009.2 1007.1 0.6
20/10:00pm 27.1 32.2 22.7 77 3.0 CALM 0 0 0 0 1008.0 1005.9 0.6
20/09:30pm 27.1 32.0 23.1 79 2.8 NNE 2 7 1 4 1007.9 1005.8 0.6
20/09:00pm 26.9 30.2 22.5 77 3.0 N 9 11 5 6 1007.7 1005.5 0.6
20/08:30pm 27.0 30.3 22.6 77 3.0 NNE 9 13 5 7 1007.2 1005.1 0.6
20/08:00pm 27.1 29.8 22.1 74 3.4 N 11 15 6 8 1007.2 1005.1 0.6
20/07:30pm 26.8 29.8 22.6 78 2.9 NNE 11 15 6 8 1006.8 1004.7 0.6
20/07:00pm 27.2 30.1 22.4 75 3.3 N 11 15 6 8 1006.3 1004.2 0.6
20/06:30pm 27.4 29.2 21.9 72 3.7 NW 15 28 8 15 1006.2 1004.1 0.6
20/06:00pm 25.8 29.2 22.7 83 2.1 W 9 13 5 7 1005.9 1003.8 0.4
20/05:39pm 25.8 24.4 21.2 76 3.1 SW 30 48 16 26 1005.7 1003.6 0.2
20/05:30pm 28.1 25.6 20.9 65 4.8 WSW 35 52 19 28 1005.6 1003.5 0.0
20/05:22pm 30.4 28.8 20.0 53 6.9 SW 28 52 15 28 1005.6 1003.5 0.0
20/05:00pm 32.0 30.8 19.3 47 8.4 SW 24 39 13 21 1004.6 1002.4 0.0
20/04:30pm 36.5 35.5 16.6 30 12.9 WNW 17 26 9 14 1004.0 1001.9 0.0
20/04:00pm 37.0 36.6 17.1 31 13.0 WSW 15 28 8 15 1004.3 1002.1 0.0
20/03:30pm 36.4 35.4 16.5 30 12.9 WNW 17 26 9 14 1004.7 1002.5 0.0
20/03:00pm 36.7 34.5 16.8 30 13.0 W 24 33 13 18 1005.0 1002.9 0.0
20/02:30pm 37.1 35.4 17.1 30 13.0 NW 22 33 12 18 1005.3 1003.2 0.0
20/02:17pm 36.9 34.6 17.5 32 12.7 NW 26 39 14 21 1005.5 1003.4 0.0
20/02:00pm 35.5 37.0 19.0 37 11.0 NW 9 15 5 8 1006.0 1003.9 0.0
20/01:30pm 31.8 33.7 19.8 49 8.0 SSW 9 13 5 7 1006.9 1004.8 0.0
20/01:00pm 32.5 31.8 18.7 44 9.1 SW 20 26 11 14 1007.4 1005.3 0.0
20/12:30pm 34.6 32.0 16.0 33 11.9 WNW 24 41 13 22 1007.8 1005.6 0.0
20/12:09pm 34.9 31.3 15.3 31 12.4 WNW 28 46 15 25 1008.0 1005.9 0.0
20/12:00pm 35.0 31.0 15.3 30 12.5 NW 30 41 16 22 1008.0 1005.9 0.0
20/11:30am 34.7 31.6 15.6 32 12.1 NW 26 39 14 21 1008.0 1005.9 0.0
20/11:00am 34.5 33.6 17.7 37 11.0 NW 19 30 10 16 1008.0 1005.9 0.0
20/10:30am 33.4 32.5 18.3 40 9.9 NW 20 32 11 17 1008.6 1006.5 0.0
20/10:00am 32.7 30.8 17.7 40 9.8 NW 24 35 13 19 1008.8 1006.7 0.0
20/09:30am 32.8 31.9 17.8 40 9.8 NW 19 30 10 16 1008.4 1006.3 0.0
20/09:00am 31.6 30.9 18.2 44 8.7 NNW 19 28 10 15 1008.2 1006.1 0.0
20/08:30am 30.6 30.6 19.0 50 7.6 NNW 17 22 9 12 1008.3 1006.2 0.0
20/08:00am 29.7 29.9 19.4 54 6.8 N 17 22 9 12 1008.1 1006.0 0.0
20/07:30am 29.0 29.7 19.6 57 6.2 N 15 24 8 13 1007.9 1005.8 0.0
20/07:00am 28.8 30.0 20.0 59 5.8 N 13 17 7 9 1007.7 1005.5 0.0
20/06:30am 28.7 29.7 20.2 60 5.6 NNE 15 20 8 11 1007.0 1004.9 0.0
20/06:00am 28.5 30.2 20.2 60 5.5 NNE 11 13 6 7 1006.5 1004.4 0.0
20/05:30am 28.4 30.8 20.9 64 5.0 N 9 11 5 6 1005.8 1003.7 0.0
20/05:00am 28.1 30.5 20.9 65 4.8 NE 9 11 5 6 1005.4 1003.3 0.0
20/04:30am 28.5 30.9 20.8 63 5.2 NNE 9 11 5 6 1005.3 1003.2 0.0
20/04:00am 28.5 31.1 20.5 62 5.3 N 7 7 4 4 1005.5 1003.4 0.0
20/03:30am 28.5 30.9 20.8 63 5.2 N 9 11 5 6 1005.6 1003.5 0.0
20/03:00am 28.5 30.5 20.8 63 5.2 NNE 11 13 6 7 1005.6 1003.5 0.0
20/02:30am 28.2 30.2 20.7 63 5.0 N 11 15 6 8 1006.0 1003.9 0.0
20/02:00am 28.2 29.6 21.0 65 4.8 N 15 19 8 10 1006.1 1004.0 0.0
20/01:30am 28.2 29.6 21.0 65 4.8 NNE 15 17 8 9 1006.4 1004.3 0.0
20/01:00am 28.3 29.7 21.1 65 4.9 NNE 15 19 8 10 1006.5 1004.4 0.0
20/12:30am 28.2 31.2 21.2 65 4.7 NNE 7 9 4 5 1006.7 1004.6 0.0
20/12:00am 28.0 30.5 21.1 66 4.6 NNW 9 11 5 6 1007.0 1004.9 0.0
 
Date/Time
EST
Temp
°C
App
Temp
°C
Dew
Point
°C
Rel
Hum
%
Delta-T
°C
Wind Press
QNH
hPa
Press
MSL
hPa
Rain since
9am
mm
Dir  Spd
km/h
Gust
km/h
Spd
kts
Gust
kts
19/11:30pm 28.1 30.5 20.9 65 4.8 N 9 11 5 6 1007.1 1005.0 0.0
19/11:00pm 28.4 31.2 20.9 64 5.0 NNE 7 9 4 5 1007.2 1005.1 0.0
19/10:30pm 28.1 30.8 20.6 63 5.0 E 7 9 4 5 1007.2 1005.1 0.0
19/10:00pm 27.8 30.7 21.1 67 4.5 ESE 7 11 4 6 1007.4 1005.3 0.0
19/09:30pm 27.4 31.3 21.2 69 4.2 SW 2 7 1 4 1007.7 1005.5 0.0
19/09:00pm 27.4 30.1 21.4 70 4.0 SSW 9 13 5 7 1007.9 1005.8 0.0
19/08:30pm 27.2 29.4 21.2 69 4.0 WSW 11 15 6 8 1008.3 1006.2 0.0
19/08:00pm 27.1 28.8 21.6 72 3.7 SW 15 20 8 11 1008.6 1006.5 0.0
19/07:30pm 27.8 28.4 21.3 67 4.4 SW 20 30 11 16 1008.7 1006.6 0.0
19/07:06pm 30.7 28.1 19.4 51 7.5 WSW 32 56 17 30 1008.0 1005.9 0.0
19/07:04pm 31.3 29.2 19.0 48 8.1 W 28 56 15 30 1007.9 1005.8 0.0
19/07:02pm 32.3 31.3 18.8 44 8.9 W 22 54 12 29 1008.0 1005.9 0.0
19/07:00pm 33.1 32.7 18.1 41 9.8 W 17 54 9 29 1007.7 1005.5 0.0
19/06:30pm 34.7 34.8 17.4 35 11.3 NNW 13 15 7 8 1006.5 1004.4 0.0
19/06:00pm 35.0 34.1 16.8 34 11.8 N 17 19 9 10 1006.3 1004.2 0.0
19/05:30pm 35.9 36.8 16.6 31 12.5 WSW 7 9 4 5 1006.0 1003.9 0.0
19/05:00pm 35.9 36.6 17.1 32 12.3 SSW 9 11 5 6 1005.9 1003.8 0.0
19/04:30pm 36.1 36.3 16.8 32 12.5 SSW 11 17 6 9 1006.0 1003.9 0.0
19/04:00pm 37.4 37.9 17.4 30 13.1 WNW 11 15 6 8 1006.3 1004.2 0.0
19/03:30pm 36.4 37.1 16.0 29 13.1 W 7 15 4 8 1006.7 1004.6 0.0
19/03:00pm 36.0 36.6 16.7 31 12.5 SW 9 13 5 7 1007.1 1005.0 0.0
19/02:30pm 35.5 35.3 16.8 33 12.1 SW 13 19 7 10 1007.7 1005.5 0.0
19/02:00pm 36.3 36.2 15.9 29 13.1 SSW 11 20 6 11 1008.2 1006.1 0.0
19/01:30pm 36.2 36.5 15.9 30 13.0 WSW 9 19 5 10 1008.8 1006.7 0.0
19/01:00pm 35.8 35.3 16.0 30 12.7 W 13 22 7 12 1009.4 1007.3 0.0
19/12:30pm 36.0 36.2 16.7 31 12.5 SW 11 19 6 10 1009.7 1007.6 0.0
19/12:00pm 35.5 35.0 16.8 33 12.1 W 15 20 8 11 1010.1 1008.0 0.0
19/11:30am 36.2 37.2 17.8 33 12.1 ESE 9 22 5 12 1010.4 1008.3 0.0
19/11:00am 34.9 35.6 15.7 31 12.2 SW 6 11 3 6 1010.7 1008.6 0.0
19/10:30am 34.4 35.1 18.0 37 10.7 SW 11 17 6 9 1011.1 1009.0 0.0
19/10:00am 33.8 34.8 18.7 40 10.0 SW 11 19 6 10 1011.4 1009.3 0.0
19/09:30am 32.6 35.4 18.8 44 9.1 NNE 2 9 1 5 1011.4 1009.3 0.0
19/09:00am 30.7 34.2 20.3 53 7.0 W 2 7 1 4 1011.6 1009.5 0.0
19/08:30am 29.2 32.8 21.2 62 5.4 N 4 7 2 4 1011.7 1009.6 0.0
19/08:00am 28.7 33.2 21.5 65 4.9 CALM 0 0 0 0 1011.8 1009.7 0.0
19/07:30am 28.0 32.7 22.0 70 4.1 CALM 0 0 0 0 1011.6 1009.5 0.0
19/07:00am 27.6 32.4 22.1 72 3.7 CALM 0 0 0 0 1011.1 1009.0 0.0
19/06:30am 27.0 31.7 22.0 74 3.4 CALM 0 0 0 0 1010.7 1008.6 0.0
19/06:00am 26.8 31.0 21.8 74 3.4 ENE 2 9 1 5 1010.5 1008.4 0.0
19/05:30am 26.1 30.7 21.7 77 3.0 CALM 0 0 0 0 1010.3 1008.2 0.0
19/05:00am 25.9 30.3 21.3 76 3.1 CALM 0 0 0 0 1010.2 1008.1 0.0
19/04:30am 26.1 30.0 21.1 74 3.3 ENE 2 7 1 4 1010.0 1007.9 0.0
19/04:00am 26.8 31.0 20.9 70 3.9 CALM 0 0 0 0 1009.7 1007.6 0.0
19/03:30am 26.8 31.1 21.1 71 3.8 CALM 0 0 0 0 1009.7 1007.6 0.0
19/03:00am 26.7 30.7 20.5 69 4.1 CALM 0 4 0 2 1010.1 1008.0 0.0
19/02:30am 27.1 29.7 20.4 66 4.4 SW 7 7 4 4 1010.2 1008.1 0.0
19/02:00am 27.3 29.9 20.1 64 4.8 SE 6 7 3 4 1010.4 1008.3 0.0
19/01:30am 27.2 29.4 20.3 66 4.6 SW 9 11 5 6 1010.7 1008.6 0.0
19/01:00am 27.5 30.9 20.1 64 4.9 ESE 2 6 1 3 1010.7 1008.6 0.0
19/12:30am 27.8 30.2 20.1 63 5.1 SE 7 9 4 5 1011.1 1009.0 0.0
19/12:00am 28.1 30.1 19.9 61 5.4 S 9 11 5 6 1011.4 1009.3 0.0
 
Date/Time
EST
Temp
°C
App
Temp
°C
Dew
Point
°C
Rel
Hum
%
Delta-T
°C
Wind Press
QNH
hPa
Press
MSL
hPa
Rain since
9am
mm
Dir  Spd
km/h
Gust
km/h
Spd
kts
Gust
kts
18/11:30pm 28.4 30.9 19.9 60 5.6 SE 6 7 3 4 1011.4 1009.3 0.0
18/11:00pm 28.8 32.2 19.4 56 6.2 CALM 0 0 0 0 1011.6 1009.5 0.0
18/10:30pm 29.5 31.5 19.2 54 6.8 SSE 7 11 4 6 1011.8 1009.7 0.0
18/10:00pm 30.0 32.2 19.1 52 7.2 W 6 11 3 6 1012.0 1009.9 0.0
18/09:30pm 30.5 30.9 18.9 50 7.6 S 15 24 8 13 1011.5 1009.4 0.0
18/09:00pm 31.0 30.6 19.0 48 7.9 SSE 19 24 10 13 1011.2 1009.1 0.0
18/08:30pm 31.8 30.5 19.1 47 8.4 SSE 24 32 13 17 1010.6 1008.5 0.0
18/08:03pm 32.9 32.1 17.1 39 10.2 SE 17 41 9 22 1010.0 1007.9 0.0
18/08:00pm 32.9 32.4 15.0 34 11.2 E 11 22 6 12 1009.9 1007.8 0.0
18/07:30pm 34.4 34.4 15.3 31 12.1 E 9 11 5 6 1009.6 1007.5 0.0
18/07:00pm 36.2 35.3 13.6 25 14.0 ESE 11 13 6 7 1009.4 1007.3 0.0
18/06:30pm 38.0 37.3 13.3 23 15.3 SE 9 13 5 7 1009.1 1007.0 0.0
18/06:00pm 38.3 37.4 11.4 20 16.3 ENE 7 11 4 6 1009.0 1006.9 0.0
18/05:30pm 38.6 38.2 12.4 21 16.1 ENE 6 11 3 6 1008.8 1006.7 0.0
18/05:00pm 38.6 38.2 12.4 21 16.1 N 6 15 3 8 1008.8 1006.7 0.0
18/04:30pm 38.6 38.4 13.1 22 15.8 ENE 6 9 3 5 1009.0 1006.9 0.0
18/04:00pm 37.8 38.2 13.8 24 15.0 N 4 11 2 6 1009.2 1007.1 0.0
18/03:30pm 38.0 38.1 13.9 24 15.1 SE 6 11 3 6 1009.5 1007.4 0.0
18/03:00pm 37.7 37.7 13.7 24 15.0 SSE 6 11 3 6 1009.9 1007.8 0.0
18/02:30pm 37.1 36.6 13.8 25 14.5 NNE 9 17 5 9 1010.6 1008.5 0.0
18/02:00pm 36.7 37.3 15.2 27 13.7 ESE 6 11 3 6 1011.3 1009.2 0.0
18/01:30pm 36.2 36.6 15.3 28 13.3 ESE 7 15 4 8 1011.9 1009.8 0.0
18/01:00pm 35.7 35.6 15.9 30 12.7 N 11 19 6 10 1012.4 1010.3 0.0
18/12:30pm 35.6 36.8 15.9 31 12.6 NNE 4 17 2 9 1013.0 1010.9 0.0
18/12:00pm 35.1 35.0 15.9 31 12.3 NW 11 19 6 10 1013.5 1011.4 0.0
18/11:30am 34.1 32.9 16.0 34 11.5 NW 17 28 9 15 1014.0 1012.0 0.0
18/11:00am 33.3 33.3 17.1 38 10.4 NW 13 26 7 14 1014.6 1012.5 0.0
18/10:30am 32.8 32.3 17.8 40 9.8 NW 17 28 9 15 1014.9 1012.8 0.0

Other Formats:

Comma delimited format used in spreadsheet applications
http://www.bom.gov.au/fwo/IDQ60801/IDQ60801.94510.axf

JavaScript Object Notation format (JSON) in row-major order
http://www.bom.gov.au/fwo/IDQ60801/IDQ60801.94510.json